createdAt,value
2022-08-10T00:01:54.018Z,1.80
2022-08-10T00:04:22.434Z,2.10
2022-08-10T00:06:53.073Z,2.00
2022-08-10T00:09:20.523Z,1.90
2022-08-10T00:11:47.276Z,1.60
2022-08-10T00:14:14.068Z,1.80
2022-08-10T00:16:40.857Z,1.87
2022-08-10T00:19:07.611Z,1.90
2022-08-10T00:21:34.478Z,2.03
2022-08-10T00:24:01.239Z,2.00
2022-08-10T00:28:01.203Z,2.10
2022-08-10T00:29:14.940Z,1.90
2022-08-10T00:31:57.688Z,2.20
2022-08-10T00:34:26.336Z,1.97
2022-08-10T00:36:53.083Z,2.20
2022-08-10T00:39:19.950Z,1.97
2022-08-10T00:41:46.955Z,2.07
2022-08-10T00:44:34.264Z,1.90
2022-08-10T00:47:01.106Z,2.10
2022-08-10T00:49:28.137Z,2.00
2022-08-10T00:51:55.357Z,2.40
2022-08-10T00:54:24.064Z,1.90
2022-08-10T00:57:17.037Z,2.10
2022-08-10T00:59:58.034Z,2.27
2022-08-10T01:02:30.886Z,2.00
2022-08-10T01:05:03.014Z,2.10
2022-08-10T01:07:56.599Z,2.10
2022-08-10T01:10:40.795Z,2.23
2022-08-10T01:13:13.544Z,1.87
2022-08-10T01:15:50.797Z,2.30
2022-08-10T01:18:23.727Z,2.13
2022-08-10T01:21:17.804Z,1.80
2022-08-10T01:23:50.865Z,2.00
2022-08-10T01:26:53.251Z,2.10
2022-08-10T01:29:28.794Z,2.20
2022-08-10T01:31:57.503Z,2.23
2022-08-10T01:34:27.215Z,2.23
2022-08-10T01:36:58.334Z,2.07
2022-08-10T01:39:26.805Z,2.40
2022-08-10T01:41:58.261Z,2.10
2022-08-10T01:44:34.027Z,2.10
2022-08-10T01:47:27.534Z,1.90
2022-08-10T01:49:59.384Z,2.20
2022-08-10T01:52:27.656Z,2.10
2022-08-10T01:54:56.006Z,2.30
2022-08-10T01:57:23.786Z,1.83
2022-08-10T01:59:58.760Z,2.00
2022-08-10T02:02:33.412Z,2.10
2022-08-10T02:05:02.183Z,2.63
2022-08-10T02:07:30.553Z,2.30
2022-08-10T02:09:58.925Z,2.33
2022-08-10T02:12:28.187Z,2.10
2022-08-10T02:15:05.953Z,1.97
2022-08-10T02:18:00.178Z,2.40
2022-08-10T02:20:27.377Z,2.20
2022-08-10T02:23:02.695Z,2.20
2022-08-10T02:25:42.121Z,2.27
2022-08-10T02:28:12.364Z,2.10
2022-08-10T02:30:55.530Z,2.13
2022-08-10T02:33:26.627Z,2.30
2022-08-10T02:35:55.958Z,2.20
2022-08-10T02:38:58.092Z,2.80
2022-08-10T02:45:15.944Z,2.17
2022-08-10T02:45:22.579Z,2.10
2022-08-10T02:47:17.944Z,2.23
2022-08-10T02:49:49.613Z,2.50
2022-08-10T02:52:18.128Z,2.13
2022-08-10T02:54:50.208Z,2.27
2022-08-10T02:57:24.838Z,2.20
2022-08-10T02:59:53.680Z,2.20
2022-08-10T03:02:26.733Z,2.20
2022-08-10T03:04:58.067Z,2.40
2022-08-10T03:07:44.562Z,2.23
2022-08-10T03:10:26.541Z,2.27
2022-08-10T03:12:56.088Z,2.30
2022-08-10T03:15:23.575Z,2.10
2022-08-10T03:17:58.265Z,2.50
2022-08-10T03:20:36.831Z,2.43
2022-08-10T03:23:11.329Z,2.40
2022-08-10T03:25:38.349Z,1.90
2022-08-10T03:28:05.809Z,2.30
2022-08-10T03:30:34.286Z,2.20
2022-08-10T03:33:03.910Z,2.17
2022-08-10T03:35:30.868Z,2.30
2022-08-10T03:37:59.456Z,2.47
2022-08-10T03:40:45.700Z,2.10
2022-08-10T03:43:20.767Z,2.33
2022-08-10T03:45:56.443Z,2.30
2022-08-10T03:48:32.355Z,2.93
2022-08-10T03:51:12.631Z,2.40
2022-08-10T03:54:05.589Z,2.53
2022-08-10T03:56:31.475Z,2.53
2022-08-10T03:58:59.407Z,2.17
2022-08-10T04:02:46.138Z,2.30
2022-08-10T04:04:17.732Z,2.50
2022-08-10T04:06:47.582Z,2.00
2022-08-10T04:09:18.461Z,2.47
2022-08-10T04:11:46.364Z,2.30
2022-08-10T04:14:47.182Z,2.30
2022-08-10T04:17:00.100Z,2.40
2022-08-10T04:19:27.264Z,2.43
2022-08-10T04:22:02.895Z,2.43
2022-08-10T04:24:33.231Z,2.20
2022-08-10T04:27:00.919Z,2.20
2022-08-10T04:29:28.901Z,2.77
2022-08-10T04:31:55.924Z,2.27
2022-08-10T04:34:24.039Z,2.57
2022-08-10T04:36:52.132Z,2.83
2022-08-10T04:39:19.617Z,2.60
2022-08-10T04:41:47.634Z,2.90
2022-08-10T04:44:14.590Z,2.50
2022-08-10T04:46:55.740Z,2.20
2022-08-10T04:49:55.015Z,2.27
2022-08-10T04:52:11.883Z,3.00
2022-08-10T04:54:38.773Z,2.43
2022-08-10T04:57:06.500Z,2.20
2022-08-10T04:59:33.409Z,2.30
2022-08-10T05:02:21.802Z,2.30
2022-08-10T05:04:46.969Z,2.50
2022-08-10T05:07:16.036Z,2.50
2022-08-10T05:10:01.699Z,2.57
2022-08-10T05:12:32.920Z,2.50
2022-08-10T05:15:08.450Z,2.60
2022-08-10T05:17:36.032Z,2.13
2022-08-10T05:20:06.775Z,2.30
2022-08-10T05:22:35.441Z,2.27
2022-08-10T05:25:02.574Z,2.47
2022-08-10T05:27:29.384Z,2.50
2022-08-10T05:30:02.458Z,2.50
2022-08-10T05:32:31.283Z,2.70
2022-08-10T05:34:58.272Z,3.37
2022-08-10T05:38:09.993Z,2.57
2022-08-10T05:40:12.047Z,3.07
2022-08-10T05:42:39.280Z,3.07
2022-08-10T05:45:09.314Z,3.00
2022-08-10T05:48:41.853Z,3.03
2022-08-10T05:50:27.737Z,3.03
2022-08-10T05:52:54.669Z,2.47
2022-08-10T05:55:22.523Z,2.72
2022-08-10T05:57:49.664Z,2.40
2022-08-10T06:00:36.272Z,2.10
2022-08-10T06:03:07.869Z,2.50
2022-08-10T06:05:36.812Z,2.40
2022-08-10T06:08:15.890Z,2.37
2022-08-10T06:12:16.506Z,2.00
2022-08-10T06:13:59.447Z,2.10
2022-08-10T06:16:38.171Z,2.00
2022-08-10T06:19:05.613Z,2.17
2022-08-10T06:21:33.115Z,2.07
2022-08-10T06:24:01.649Z,2.40
2022-08-10T06:26:28.570Z,2.23
2022-08-10T06:29:02.892Z,2.13
2022-08-10T06:31:48.290Z,2.10
2022-08-10T06:34:25.820Z,2.13
2022-08-10T06:36:53.966Z,1.90
2022-08-10T06:39:37.609Z,2.33
2022-08-10T06:42:16.161Z,2.43
2022-08-10T06:44:54.051Z,2.20
2022-08-10T06:47:24.025Z,2.30
2022-08-10T06:49:53.035Z,2.33
2022-08-10T06:52:20.404Z,2.17
2022-08-10T06:54:48.293Z,1.97
2022-08-10T06:57:18.099Z,2.57
2022-08-10T06:59:45.947Z,1.93
2022-08-10T07:02:19.480Z,2.10
2022-08-10T07:04:54.870Z,2.20
2022-08-10T07:07:24.030Z,2.37
2022-08-10T07:09:52.099Z,2.20
2022-08-10T07:12:20.855Z,2.47
2022-08-10T07:14:48.952Z,2.20
2022-08-10T07:17:17.430Z,2.30
2022-08-10T07:19:49.764Z,2.30
2022-08-10T07:23:22.823Z,2.40
2022-08-10T07:25:06.893Z,2.03
2022-08-10T07:27:58.978Z,2.27
2022-08-10T07:30:21.362Z,2.23
2022-08-10T07:32:49.837Z,2.20
2022-08-10T07:35:17.141Z,2.60
2022-08-10T07:37:48.020Z,2.33
2022-08-10T07:40:16.293Z,2.13
2022-08-10T07:42:46.208Z,2.20
2022-08-10T07:45:13.632Z,2.27
2022-08-10T07:47:54.477Z,2.13
2022-08-10T07:50:22.790Z,2.40
2022-08-10T07:52:49.833Z,1.97
2022-08-10T07:55:18.277Z,1.80
2022-08-10T07:57:47.288Z,2.17
2022-08-10T08:00:14.550Z,1.90
2022-08-10T08:02:47.943Z,1.70
2022-08-10T08:05:55.164Z,1.80
2022-08-10T08:08:02.955Z,1.90
2022-08-10T08:10:31.150Z,1.90
2022-08-10T08:12:58.842Z,1.80
2022-08-10T08:16:17.681Z,1.90
2022-08-10T08:18:13.887Z,1.67
2022-08-10T08:20:42.155Z,1.93
2022-08-10T08:24:10.166Z,1.90
2022-08-10T08:26:01.243Z,1.93
2022-08-10T08:28:28.805Z,2.20
2022-08-10T08:30:56.409Z,2.10
2022-08-10T08:33:41.705Z,2.00
2022-08-10T08:36:10.453Z,2.00
2022-08-10T08:38:37.814Z,1.90
2022-08-10T08:41:16.787Z,2.10
2022-08-10T08:43:58.980Z,2.00
2022-08-10T08:46:33.880Z,1.67
2022-08-10T08:49:06.977Z,1.90
2022-08-10T08:52:16.922Z,1.70
2022-08-10T08:54:38.748Z,2.03
2022-08-10T08:57:14.367Z,2.10
2022-08-10T09:00:05.475Z,1.83
2022-08-10T09:02:55.084Z,1.93
2022-08-10T09:05:58.537Z,1.70
2022-08-10T09:08:50.246Z,2.10
2022-08-10T09:11:19.848Z,1.93
2022-08-10T09:13:58.989Z,2.00
2022-08-10T09:16:38.218Z,2.10
2022-08-10T09:19:35.674Z,2.20
2022-08-10T09:22:18.523Z,2.17
2022-08-10T09:25:02.201Z,1.97
2022-08-10T09:27:44.004Z,1.83
2022-08-10T09:30:18.271Z,2.33
2022-08-10T09:36:13.859Z,2.40
2022-08-10T09:36:22.291Z,2.10
2022-08-10T09:38:44.797Z,2.30
2022-08-10T09:41:30.508Z,2.00
2022-08-10T09:44:18.383Z,2.30
2022-08-10T09:47:04.099Z,2.17
2022-08-10T09:49:55.766Z,2.13
2022-08-10T09:52:43.728Z,2.10
2022-08-10T09:55:16.252Z,2.10
2022-08-10T09:57:54.949Z,2.10
2022-08-10T10:00:27.183Z,2.40
2022-08-10T10:03:06.515Z,2.20
2022-08-10T10:05:51.204Z,1.87
2022-08-10T10:08:18.842Z,2.30
2022-08-10T10:10:54.155Z,2.20
2022-08-10T10:13:49.978Z,2.20
2022-08-10T10:16:41.740Z,2.30
2022-08-10T10:19:27.219Z,2.30
2022-08-10T10:21:58.825Z,1.90
2022-08-10T10:24:39.588Z,2.13
2022-08-10T10:27:16.494Z,2.00
2022-08-10T10:29:57.008Z,1.80
2022-08-10T10:32:37.884Z,1.83
2022-08-10T10:35:23.630Z,1.87
2022-08-10T10:38:01.247Z,2.00
2022-08-10T10:40:52.890Z,1.83
2022-08-10T10:43:34.865Z,2.10
2022-08-10T10:46:16.730Z,2.00
2022-08-10T10:49:06.456Z,2.03
2022-08-10T10:51:37.450Z,1.73
2022-08-10T10:54:19.108Z,1.90
2022-08-10T10:56:56.957Z,1.92
2022-08-10T10:59:54.086Z,1.55
2022-08-10T11:02:21.874Z,1.65
2022-08-10T11:05:07.702Z,1.80
2022-08-10T11:07:38.329Z,1.65
2022-08-10T11:10:32.578Z,1.73
2022-08-10T11:14:27.428Z,1.92
2022-08-10T11:16:04.276Z,1.90
2022-08-10T11:18:37.737Z,1.70
2022-08-10T11:21:07.459Z,1.80
2022-08-10T11:24:49.018Z,1.63
2022-08-10T11:26:42.946Z,1.40
2022-08-10T11:29:14.009Z,1.93
2022-08-10T11:32:04.679Z,1.73
2022-08-10T11:34:47.474Z,1.67
2022-08-10T11:38:31.880Z,1.70
2022-08-10T11:40:26.025Z,1.90
2022-08-10T11:42:52.871Z,1.77
2022-08-10T11:45:29.427Z,1.50
2022-08-10T11:47:58.880Z,1.70
2022-08-10T11:50:31.262Z,2.00
2022-08-10T11:53:16.025Z,2.10
2022-08-10T11:55:45.920Z,2.33
2022-08-10T11:58:32.020Z,1.43
2022-08-10T12:01:03.746Z,1.80
2022-08-10T12:03:36.195Z,1.80
2022-08-10T12:06:04.670Z,1.70
2022-08-10T12:10:05.208Z,1.77
2022-08-10T12:11:24.687Z,1.80
2022-08-10T12:14:23.079Z,1.50
2022-08-10T12:16:53.096Z,2.08
2022-08-10T12:19:27.297Z,1.73
2022-08-10T12:21:59.963Z,1.50
2022-08-10T12:24:36.329Z,1.60
2022-08-10T12:27:07.492Z,1.73
2022-08-10T12:29:52.029Z,1.77
2022-08-10T12:32:27.074Z,1.42
2022-08-10T12:35:01.497Z,1.70
2022-08-10T12:37:35.408Z,1.67
2022-08-10T12:40:37.192Z,1.80
2022-08-10T12:44:07.896Z,1.90
2022-08-10T12:46:23.513Z,1.75
2022-08-10T12:48:57.092Z,1.80
2022-08-10T12:51:25.175Z,1.67
2022-08-10T12:54:10.603Z,1.45
2022-08-10T12:56:40.434Z,1.80
2022-08-10T12:59:09.530Z,1.50
2022-08-10T13:02:06.793Z,1.80
2022-08-10T13:04:38.383Z,1.88
2022-08-10T13:07:06.518Z,2.05
2022-08-10T13:09:33.780Z,1.80
2022-08-10T13:12:38.303Z,2.00
2022-08-10T13:15:44.563Z,1.90
2022-08-10T13:18:00.995Z,1.50
2022-08-10T13:20:29.781Z,1.70
2022-08-10T13:22:59.215Z,1.80
2022-08-10T13:25:29.680Z,1.87
2022-08-10T13:28:34.816Z,1.90
2022-08-10T13:30:50.710Z,1.90
2022-08-10T13:34:40.830Z,1.90
2022-08-10T13:36:05.397Z,1.83
2022-08-10T13:38:32.671Z,1.97
2022-08-10T13:40:59.896Z,1.80
2022-08-10T13:43:26.944Z,1.70
2022-08-10T13:45:54.704Z,1.70
2022-08-10T13:48:22.777Z,1.40
2022-08-10T13:50:50.857Z,1.63
2022-08-10T13:53:19.445Z,1.97
2022-08-10T13:55:54.865Z,2.17
2022-08-10T13:58:36.864Z,1.73
2022-08-10T14:01:11.131Z,1.83
2022-08-10T14:03:39.072Z,2.10
2022-08-10T14:06:07.216Z,2.00
2022-08-10T14:08:35.946Z,1.70
2022-08-10T14:11:11.234Z,1.60
2022-08-10T14:13:51.803Z,1.70
2022-08-10T14:16:19.330Z,2.10
2022-08-10T14:18:48.122Z,1.77
2022-08-10T14:21:16.186Z,1.80
2022-08-10T14:23:52.729Z,1.80
2022-08-10T14:26:22.186Z,2.13
2022-08-10T14:29:02.067Z,1.73
2022-08-10T14:31:34.147Z,2.00
2022-08-10T14:34:02.106Z,1.80
2022-08-10T14:36:36.548Z,1.60
2022-08-10T14:39:04.544Z,1.60
2022-08-10T14:42:01.131Z,1.70
2022-08-10T14:44:20.346Z,1.90
2022-08-10T14:46:51.776Z,2.10
2022-08-10T14:49:25.907Z,1.93
2022-08-10T14:51:59.184Z,2.20
2022-08-10T14:54:29.695Z,2.00
2022-08-10T14:57:11.381Z,2.20
2022-08-10T15:00:22.463Z,2.03
2022-08-10T15:02:39.915Z,1.90
2022-08-10T15:05:09.759Z,2.13
2022-08-10T15:07:37.678Z,1.90
2022-08-10T15:10:07.017Z,1.87
2022-08-10T15:12:38.257Z,1.90
2022-08-10T15:15:07.218Z,1.73
2022-08-10T15:17:37.129Z,1.93
2022-08-10T15:20:14.844Z,2.13
2022-08-10T15:22:46.293Z,1.97
2022-08-10T15:25:18.344Z,1.80
2022-08-10T15:27:54.585Z,2.00
2022-08-10T15:30:32.636Z,2.27
2022-08-10T15:33:21.575Z,2.33
2022-08-10T15:36:25.844Z,1.60
2022-08-10T15:38:57.314Z,1.90
2022-08-10T15:41:59.311Z,1.80
2022-08-10T15:44:22.097Z,1.80
2022-08-10T15:46:50.080Z,2.20
2022-08-10T15:49:30.687Z,2.40
2022-08-10T15:52:07.537Z,2.00
2022-08-10T15:54:57.768Z,2.10
2022-08-10T15:57:30.259Z,2.13
2022-08-10T16:00:03.618Z,2.30
2022-08-10T16:02:33.975Z,3.90
2022-08-10T16:06:00.558Z,2.50
2022-08-10T16:08:22.028Z,2.63
2022-08-10T16:10:54.037Z,2.10
2022-08-10T16:13:59.626Z,2.00
2022-08-10T16:16:09.569Z,2.40
2022-08-10T16:18:38.200Z,2.60
2022-08-10T16:21:15.795Z,2.70
2022-08-10T16:24:02.134Z,2.70
2022-08-10T16:26:39.339Z,2.23
2022-08-10T16:29:13.060Z,2.03
2022-08-10T16:31:47.614Z,2.03
2022-08-10T16:34:15.968Z,2.00
2022-08-10T16:36:45.895Z,2.27
2022-08-10T16:39:59.769Z,1.93
2022-08-10T16:42:24.263Z,2.10
2022-08-10T16:45:03.252Z,2.33
2022-08-10T16:47:32.140Z,2.30
2022-08-10T16:50:00.937Z,2.30
2022-08-10T16:52:29.543Z,2.00
2022-08-10T16:54:59.240Z,2.10
2022-08-10T16:57:38.776Z,2.40
2022-08-10T17:00:08.872Z,2.00
2022-08-10T17:02:35.981Z,1.90
2022-08-10T17:05:03.730Z,2.47
2022-08-10T17:07:31.997Z,2.40
2022-08-10T17:10:07.612Z,2.23
2022-08-10T17:12:36.792Z,1.97
2022-08-10T17:15:10.185Z,1.93
2022-08-10T17:17:48.766Z,2.23
2022-08-10T17:20:30.676Z,2.30
2022-08-10T17:23:02.253Z,1.97
2022-08-10T17:25:45.727Z,2.40
2022-08-10T17:28:35.294Z,2.07
2022-08-10T17:31:53.297Z,2.33
2022-08-10T17:34:12.105Z,2.13
2022-08-10T17:36:40.034Z,2.23
2022-08-10T17:39:08.846Z,2.63
2022-08-10T17:41:36.775Z,2.00
2022-08-10T17:44:04.568Z,2.20
2022-08-10T17:46:38.432Z,2.10
2022-08-10T17:49:06.795Z,2.00
2022-08-10T17:51:34.240Z,2.37
2022-08-10T17:54:04.358Z,2.33
2022-08-10T17:56:33.365Z,2.20
2022-08-10T17:59:07.271Z,2.33
2022-08-10T18:01:59.085Z,2.10
2022-08-10T18:04:27.211Z,1.93
2022-08-10T18:06:56.148Z,2.30
2022-08-10T18:09:31.127Z,2.43
2022-08-10T18:12:01.081Z,2.43
2022-08-10T18:14:33.018Z,2.50
2022-08-10T18:17:05.891Z,2.70
2022-08-10T18:19:34.586Z,3.17
2022-08-10T18:22:02.619Z,3.47
2022-08-10T18:24:30.084Z,2.93
2022-08-10T18:27:01.655Z,2.57
2022-08-10T18:29:29.028Z,2.53
2022-08-10T18:31:57.519Z,2.40
2022-08-10T18:34:24.796Z,2.67
2022-08-10T18:36:52.250Z,2.37
2022-08-10T18:39:24.292Z,2.73
2022-08-10T18:42:00.452Z,2.30
2022-08-10T18:44:53.086Z,2.50
2022-08-10T18:47:26.129Z,2.70
2022-08-10T18:49:58.974Z,2.17
2022-08-10T18:52:27.092Z,2.80
2022-08-10T18:54:55.603Z,2.90
2022-08-10T18:57:41.684Z,2.70
2022-08-10T19:00:13.217Z,2.67
2022-08-10T19:02:58.640Z,2.53
2022-08-10T19:05:36.594Z,3.30
2022-08-10T19:08:30.534Z,3.40
2022-08-10T19:11:17.606Z,3.17
2022-08-10T19:13:49.014Z,3.07
2022-08-10T19:16:19.306Z,2.83
2022-08-10T19:18:49.079Z,2.70
2022-08-10T19:21:20.966Z,2.80
2022-08-10T19:24:09.476Z,2.60
2022-08-10T19:26:46.142Z,3.10
2022-08-10T19:30:09.253Z,3.03
2022-08-10T19:32:28.373Z,2.90
2022-08-10T19:35:02.993Z,3.03
2022-08-10T19:37:34.492Z,3.23
2022-08-10T19:40:13.850Z,2.93
2022-08-10T19:42:43.731Z,3.20
2022-08-10T19:46:00.627Z,3.03
2022-08-10T19:48:22.528Z,3.20
2022-08-10T19:50:58.017Z,3.07
2022-08-10T19:53:31.445Z,3.10
2022-08-10T19:56:24.630Z,3.00
2022-08-10T19:59:10.194Z,3.20
2022-08-10T20:01:56.285Z,3.20
2022-08-10T20:04:29.503Z,3.13
2022-08-10T20:07:01.362Z,2.83
2022-08-10T20:09:29.377Z,3.17
2022-08-10T20:11:57.531Z,3.97
2022-08-10T20:14:27.456Z,3.20
2022-08-10T20:17:00.352Z,3.83
2022-08-10T20:19:53.482Z,3.40
2022-08-10T20:22:30.412Z,3.30
2022-08-10T20:25:11.445Z,2.93
2022-08-10T20:28:00.347Z,2.90
2022-08-10T20:30:32.695Z,3.00
2022-08-10T20:33:19.939Z,3.13
2022-08-10T20:35:49.460Z,2.90
2022-08-10T20:38:27.468Z,2.60
2022-08-10T20:41:15.600Z,3.30
2022-08-10T20:44:01.344Z,3.03
2022-08-10T20:46:37.661Z,3.20
2022-08-10T20:49:11.592Z,2.90
2022-08-10T20:51:57.309Z,3.50
2022-08-10T20:54:32.759Z,3.13
2022-08-10T20:56:59.759Z,3.50
2022-08-10T20:59:33.476Z,3.10
2022-08-10T21:02:20.824Z,3.27
2022-08-10T21:05:18.260Z,3.20
2022-08-10T21:08:05.016Z,3.00
2022-08-10T21:10:49.031Z,2.77
2022-08-10T21:13:55.085Z,2.90
2022-08-10T21:16:33.970Z,2.80
2022-08-10T21:19:00.894Z,3.30
2022-08-10T21:24:31.003Z,3.10
2022-08-10T21:25:42.253Z,2.90
2022-08-10T21:27:17.424Z,3.23
2022-08-10T21:29:55.934Z,3.70
2022-08-10T21:32:30.863Z,3.50
2022-08-10T21:35:20.339Z,3.87
2022-08-10T21:38:09.379Z,3.50
2022-08-10T21:41:17.120Z,4.17
2022-08-10T21:44:08.102Z,4.03
2022-08-10T21:47:01.687Z,3.87
2022-08-10T21:49:57.218Z,3.73
2022-08-10T21:52:54.149Z,3.17
2022-08-10T21:55:58.281Z,3.77
2022-08-10T21:59:00.088Z,3.40
2022-08-10T22:01:51.471Z,2.97
2022-08-10T22:04:38.246Z,2.77
2022-08-10T22:07:27.037Z,3.20
2022-08-10T22:10:13.695Z,2.90
2022-08-10T22:13:03.361Z,2.77
2022-08-10T22:16:11.214Z,2.80
2022-08-10T22:19:03.000Z,3.20
2022-08-10T22:21:52.110Z,3.13
2022-08-10T22:24:48.062Z,2.87
2022-08-10T22:27:47.313Z,3.30
2022-08-10T22:30:34.919Z,3.00
2022-08-10T22:33:24.306Z,3.20
2022-08-10T22:36:19.060Z,3.17
2022-08-10T22:40:11.657Z,3.10
2022-08-10T22:42:59.033Z,2.77
2022-08-10T22:45:48.636Z,3.00
2022-08-10T22:48:36.016Z,2.90
2022-08-10T22:51:06.573Z,2.97
2022-08-10T22:54:03.268Z,2.80
2022-08-10T22:56:48.507Z,3.00
2022-08-10T22:59:32.098Z,3.10
2022-08-10T23:02:08.708Z,2.50
2022-08-10T23:04:44.942Z,2.90
2022-08-10T23:07:18.026Z,3.10
2022-08-10T23:09:45.870Z,2.93
2022-08-10T23:12:39.312Z,3.40
2022-08-10T23:15:25.881Z,3.33
2022-08-10T23:18:12.468Z,2.83
2022-08-10T23:20:41.506Z,2.93
2022-08-10T23:23:10.455Z,2.70
2022-08-10T23:25:56.489Z,2.73
2022-08-10T23:28:38.576Z,3.43
2022-08-10T23:31:13.658Z,2.67
2022-08-10T23:33:41.192Z,2.93
2022-08-10T23:36:33.925Z,2.63
2022-08-10T23:39:25.412Z,2.67
2022-08-10T23:41:53.207Z,2.73
2022-08-10T23:44:22.577Z,3.03
2022-08-10T23:46:49.722Z,3.00
2022-08-10T23:49:17.011Z,3.00
2022-08-10T23:51:56.152Z,2.77
2022-08-10T23:54:23.963Z,3.17
2022-08-10T23:56:52.344Z,2.80
2022-08-10T23:59:23.677Z,3.07
